Terminal Aerodrome Forecast
Issued by NWS

Home | Current Version | Previous Version | Text Only | Print | Product List | Glossary On
Versions: 1 2 3 4 5 6 7 8 9 10 11 12 13 14 15 16 17 18 19 20 21 22 23 24 25 26 27 28 29 30 31 32 33 34 35 36
000
FTUS42 KRAH 161239 AAA
TAFRWI
TAF AMD
KRWI 161239Z 1613/1712 VRB03KT 5SM BR OVC012
     FM161430 30006KT P6SM BKN025
     FM161900 25003KT P6SM SCT035
     FM170200 VRB03KT P6SM OVC060 PROB30 1702/1706 5SM -SHRA BR
      BKN035=

USA.gov is the U.S. government's official web portal to all federal, state and local government web resources and services.